Time;durP1;ratioP1;P1;durP2;ratioP2;P2;SDS_P1;SDS_P2;PMS_P1;PMS_P2;Temp;Humidity;BMP_temperature;BMP_pressure;BME280_temperature;BME280_humidity;BME280_pressure;Samples;Min_cycle;Max_cycle;Signal;HPM_P1;HPM_P2
2022/05/06 00:01:30;;;;;;;19.35;13.98;;;;;;;6.09;100.00;101978.48;1726445;83;21602;-77
2022/05/06 00:03:57;;;;;;;21.23;14.40;;;;;;;6.06;100.00;101981.16;1709541;83;21177;-79
2022/05/06 00:06:28;;;;;;;24.07;13.98;;;;;;;6.00;100.00;101984.83;1726253;83;21531;-78
2022/05/06 00:08:56;;;;;;;22.40;14.75;;;;;;;5.98;100.00;101993.05;1726206;83;21013;-78
2022/05/06 00:11:25;;;;;;;26.80;15.38;;;;;;;5.94;100.00;101992.31;1726097;81;21037;-78
2022/05/06 00:13:54;;;;;;;25.82;16.32;;;;;;;5.92;100.00;101991.51;1726155;81;21006;-79
2022/05/06 00:16:23;;;;;;;26.50;16.52;;;;;;;5.92;100.00;101997.97;1726392;83;21220;-78
2022/05/06 00:18:52;;;;;;;30.10;16.70;;;;;;;5.90;100.00;101998.46;1710127;83;21069;-78
2022/05/06 00:21:20;;;;;;;28.87;18.30;;;;;;;5.89;100.00;102003.23;1726409;83;21645;-77
2022/05/06 00:23:48;;;;;;;27.13;16.90;;;;;;;5.85;100.00;101994.73;1726128;83;21093;-79
2022/05/06 00:26:18;;;;;;;29.70;17.65;;;;;;;5.81;100.00;101993.59;1726642;83;21057;-78
2022/05/06 00:28:45;;;;;;;37.85;20.82;;;;;;;5.80;100.00;101998.39;1726351;83;21100;-78
2022/05/06 00:31:12;;;;;;;28.75;18.00;;;;;;;5.80;100.00;101998.39;1726355;83;20947;-80
2022/05/06 00:33:40;;;;;;;30.43;18.75;;;;;;;5.80;100.00;102003.56;1726162;81;21001;-78
2022/05/06 00:36:07;;;;;;;30.70;19.65;;;;;;;5.82;100.00;102001.75;1709952;83;21081;-78
2022/05/06 00:38:34;;;;;;;27.48;17.92;;;;;;;5.84;100.00;101999.97;1726342;83;21006;-78
2022/05/06 00:41:03;;;;;;;30.48;19.17;;;;;;;5.86;100.00;102003.36;1726218;83;22382;-78
2022/05/06 00:43:30;;;;;;;29.45;20.08;;;;;;;5.85;100.00;102006.37;1726130;81;21029;-79
2022/05/06 00:45:57;;;;;;;32.28;20.17;;;;;;;5.82;100.00;101999.16;1726564;83;21045;-78
2022/05/06 00:48:31;;;;;;;34.45;20.70;;;;;;;5.76;100.00;102000.23;1726329;83;21679;-78
2022/05/06 00:51:01;;;;;;;32.75;19.87;;;;;;;5.71;100.00;102005.15;1726020;83;21046;-78
2022/05/06 00:53:29;;;;;;;31.02;19.73;;;;;;;5.67;100.00;102004.41;1695189;83;21362;-78
2022/05/06 00:55:56;;;;;;;31.82;20.65;;;;;;;5.65;100.00;102006.19;1726008;83;21050;-77
2022/05/06 00:58:24;;;;;;;31.62;20.32;;;;;;;5.64;100.00;102006.65;1726176;81;20947;-79
2022/05/06 01:00:51;;;;;;;33.73;20.20;;;;;;;5.63;100.00;102010.13;1726342;83;21038;-78
2022/05/06 01:03:18;;;;;;;33.28;21.60;;;;;;;5.64;100.00;102014.41;1726340;83;21504;-80
2022/05/06 01:05:46;;;;;;;35.83;21.23;;;;;;;5.61;100.00;102020.95;1726312;83;21163;-78
2022/05/06 01:08:13;;;;;;;35.28;21.27;;;;;;;5.56;100.00;102020.26;1726279;83;21046;-78
2022/05/06 01:10:42;;;;;;;37.45;21.50;;;;;;;5.50;100.00;102017.84;1726035;83;21073;-79
2022/05/06 01:13:09;;;;;;;34.03;21.80;;;;;;;5.45;100.00;102023.61;1726201;81;21179;-78
2022/05/06 01:15:38;;;;;;;35.60;22.67;;;;;;;5.44;100.00;102020.63;1726380;83;21015;-80
2022/05/06 01:18:13;;;;;;;33.50;22.70;;;;;;;5.43;100.00;102018.93;1723879;81;21199;-79
2022/05/06 01:20:52;;;;;;;39.08;23.25;;;;;;;5.43;100.00;102024.09;1724491;81;20995;-78
2022/05/06 01:23:20;;;;;;;45.85;25.17;;;;;;;5.44;100.00;102020.63;1725989;83;21081;-79
2022/05/06 01:25:48;;;;;;;37.00;23.92;;;;;;;5.41;100.00;102024.16;1726313;81;21058;-78
2022/05/06 01:28:16;;;;;;;42.53;23.92;;;;;;;5.36;100.00;102016.55;1726131;81;21066;-77
2022/05/06 01:30:48;;;;;;;41.33;25.08;;;;;;;5.35;100.00;102020.02;1726554;81;21245;-77
2022/05/06 01:33:21;;;;;;;43.60;24.82;;;;;;;5.32;100.00;102022.71;1726444;83;21065;-77
2022/05/06 01:35:53;;;;;;;37.55;24.80;;;;;;;5.27;100.00;102022.45;1726394;81;21523;-79
2022/05/06 01:38:37;;;;;;;40.03;25.30;;;;;;;5.25;100.00;102022.92;1724576;83;21511;-78
2022/05/06 01:41:11;;;;;;;42.45;26.00;;;;;;;5.24;100.00;102023.81;1725233;83;21022;-79
2022/05/06 01:44:03;;;;;;;40.53;24.90;;;;;;;5.25;100.00;102026.80;1711527;83;21339;-78
2022/05/06 01:46:33;;;;;;;40.17;24.98;;;;;;;5.24;100.00;102033.72;1726148;82;21027;-78
2022/05/06 01:49:03;;;;;;;48.15;26.97;;;;;;;5.21;100.00;102029.47;1718454;81;21129;-77
2022/05/06 01:51:32;;;;;;;42.05;26.73;;;;;;;5.23;100.00;102034.61;1726183;83;21058;-83
2022/05/06 01:54:02;;;;;;;44.37;25.67;;;;;;;5.22;100.00;102034.20;1726403;83;21590;-79
2022/05/06 01:56:30;;;;;;;38.55;24.05;;;;;;;5.20;100.00;102038.12;1709467;83;21173;-78
2022/05/06 01:58:57;;;;;;;44.48;26.25;;;;;;;5.19;100.00;102034.28;1726520;81;21429;-79
2022/05/06 02:01:24;;;;;;;43.45;27.35;;;;;;;5.18;100.00;102030.87;1726234;83;21520;-78
2022/05/06 02:06:39;;;;;;;42.27;25.77;;;;;;;5.14;100.00;102037.45;1726312;82;21132;-79
2022/05/06 02:09:11;;;;;;;45.38;26.97;;;;;;;5.10;100.00;102039.71;1724044;83;21295;-81
2022/05/06 02:11:44;;;;;;;44.90;27.20;;;;;;;5.08;100.00;102040.23;1724208;81;20974;-78
2022/05/06 02:14:11;;;;;;;43.90;25.68;;;;;;;5.07;100.00;102042.41;1726363;82;20971;-78
2022/05/06 02:16:46;;;;;;;43.70;27.37;;;;;;;5.02;100.00;102039.49;1718452;82;21080;-78
2022/05/06 02:19:21;;;;;;;43.80;26.70;;;;;;;4.98;100.00;102049.52;1724169;81;21564;-79
2022/05/06 02:21:53;;;;;;;38.33;25.88;;;;;;;4.93;100.00;102052.66;1723493;81;21569;-79
2022/05/06 02:24:22;;;;;;;41.85;26.75;;;;;;;4.89;100.00;102057.52;1723892;83;21025;-79
2022/05/06 02:27:00;;;;;;;38.35;25.17;;;;;;;4.89;100.00;102061.39;1723667;83;21007;-79
2022/05/06 02:29:28;;;;;;;47.33;27.30;;;;;;;4.88;100.00;102067.02;1725925;83;21037;-78
2022/05/06 02:34:42;;;;;;;44.83;25.82;;;;;;;4.88;100.00;102071.31;1725938;82;21862;-78
2022/05/06 02:37:12;;;;;;;44.50;27.15;;;;;;;4.86;100.00;102076.95;1726340;83;21030;-79
2022/05/06 02:39:47;;;;;;;44.18;27.13;;;;;;;4.87;100.00;102076.07;1723625;81;21021;-79
2022/05/06 02:42:24;;;;;;;48.02;27.77;;;;;;;4.87;100.00;102082.52;1723108;81;21045;-77
2022/05/06 02:44:52;;;;;;;45.78;28.85;;;;;;;4.86;100.00;102082.12;1726392;81;21528;-78
2022/05/06 02:47:20;;;;;;;48.85;30.17;;;;;;;4.83;100.00;102079.64;1726082;82;21034;-79
2022/05/06 02:49:47;;;;;;;51.10;28.80;;;;;;;4.81;100.00;102082.24;1721579;82;21504;-80
2022/05/06 02:52:16;;;;;;;56.00;29.77;;;;;;;4.79;100.00;102089.20;1713320;83;21047;-80
2022/05/06 02:54:46;;;;;;;54.60;30.25;;;;;;;4.80;100.00;102092.19;1713402;82;21460;-81
2022/05/06 02:57:15;;;;;;;60.00;32.15;;;;;;;4.82;100.00;102095.55;1711718;82;21113;-82
2022/05/06 02:59:43;;;;;;;56.40;32.20;;;;;;;4.86;100.00;102097.61;1713375;82;21113;-81
2022/05/06 03:02:10;;;;;;;59.15;33.00;;;;;;;4.87;100.00;102097.59;1730775;81;21039;-81
2022/05/06 03:04:38;;;;;;;49.33;30.90;;;;;;;4.89;100.00;102097.08;1742841;81;21030;-81
2022/05/06 03:07:07;;;;;;;54.10;33.25;;;;;;;4.94;100.00;102098.70;1745111;82;21078;-81
2022/05/06 03:09:39;;;;;;;51.73;32.60;;;;;;;4.99;100.00;102100.27;1743247;81;20991;-79
2022/05/06 03:12:09;;;;;;;56.58;33.78;;;;;;;5.03;100.00;102107.48;1742926;82;21178;-81
2022/05/06 03:14:39;;;;;;;54.30;31.93;;;;;;;5.06;100.00;102104.80;1742520;82;21564;-82
2022/05/06 03:17:08;;;;;;;55.43;31.20;;;;;;;5.11;100.00;102108.55;1742580;82;21015;-82
2022/05/06 03:19:36;;;;;;;55.60;33.55;;;;;;;5.17;100.00;102114.39;1743238;82;21062;-79
2022/05/06 03:22:03;;;;;;;57.48;33.00;;;;;;;5.25;100.00;102116.74;1742738;80;21042;-78
2022/05/06 03:24:30;;;;;;;53.05;32.80;;;;;;;5.30;100.00;102117.47;1742578;81;21198;-78
2022/05/06 03:26:58;;;;;;;55.90;34.00;;;;;;;5.36;100.00;102118.58;1742944;82;21054;-79
2022/05/06 03:29:25;;;;;;;57.13;34.18;;;;;;;5.43;100.00;102117.10;1742659;82;21061;-78
2022/05/06 03:31:53;;;;;;;59.45;33.25;;;;;;;5.51;100.00;102120.31;1742462;82;21528;-77
2022/05/06 03:34:21;;;;;;;56.15;32.45;;;;;;;5.59;100.00;102122.68;1742833;81;20956;-77
2022/05/06 03:36:48;;;;;;;57.53;33.20;;;;;;;5.65;100.00;102127.66;1742996;81;21537;-77
2022/05/06 03:39:16;;;;;;;58.30;32.90;;;;;;;5.75;100.00;102134.25;1742189;82;20991;-79
2022/05/06 03:41:48;;;;;;;60.58;34.85;;;;;;;5.81;100.00;102128.02;1737993;80;21560;-79
2022/05/06 03:44:15;;;;;;;56.75;32.80;;;;;;;5.89;100.00;102131.22;1744627;82;21046;-78
2022/05/06 03:46:45;;;;;;;52.60;31.73;;;;;;;5.98;100.00;102136.09;1742967;82;21050;-79
2022/05/06 03:49:13;;;;;;;58.30;33.80;;;;;;;6.08;100.00;102140.59;1742872;81;21549;-78
2022/05/06 03:51:46;;;;;;;59.03;33.05;;;;;;;6.17;100.00;102138.14;1741920;81;21830;-79
2022/05/06 03:54:16;;;;;;;54.95;33.45;;;;;;;6.25;100.00;102135.32;1727439;81;21058;-78
2022/05/06 03:56:44;;;;;;;58.83;32.45;;;;;;;6.35;100.00;102138.45;1713047;83;21397;-79
2022/05/06 03:59:12;;;;;;;60.95;33.15;;;;;;;6.47;100.00;102145.78;1713163;82;21094;-79
2022/05/06 04:01:41;;;;;;;50.73;31.35;;;;;;;6.56;100.00;102153.72;1709165;83;21164;-78
2022/05/06 04:04:10;;;;;;;61.37;33.45;;;;;;;6.67;100.00;102154.64;1708770;82;21318;-83
2022/05/06 04:06:38;;;;;;;55.60;32.60;;;;;;;6.78;100.00;102155.09;1713116;82;21050;-80
2022/05/06 04:09:05;;;;;;;64.12;33.83;;;;;;;6.86;100.00;102154.38;1712872;82;21023;-82
2022/05/06 04:11:35;;;;;;;59.48;32.70;;;;;;;6.97;100.00;102154.47;1713166;82;21089;-80
2022/05/06 04:14:04;;;;;;;52.65;30.75;;;;;;;7.06;100.00;102154.14;1709064;82;21251;-78
2022/05/06 04:16:34;;;;;;;53.10;29.95;;;;;;;7.17;100.00;102153.29;1702880;83;21070;-78
2022/05/06 04:19:03;;;;;;;47.48;28.83;;;;;;;7.29;100.00;102145.98;1680830;85;21631;-79
2022/05/06 04:24:17;;;;;;;48.87;29.63;;;;;;;7.55;100.00;102144.57;1712956;83;21050;-78
2022/05/06 04:26:45;;;;;;;48.85;27.70;;;;;;;7.70;93.73;102145.71;1713146;82;21609;-79
2022/05/06 04:29:12;;;;;;;45.63;26.80;;;;;;;7.82;90.20;102148.28;1713131;82;21051;-79
2022/05/06 04:31:40;;;;;;;44.83;25.48;;;;;;;7.93;93.32;102145.30;1712852;83;21086;-79
2022/05/06 04:34:08;;;;;;;46.83;26.70;;;;;;;8.07;84.93;102152.97;1708980;83;21085;-79
2022/05/06 04:36:39;;;;;;;48.95;25.90;;;;;;;8.17;83.43;102154.30;1713080;82;21536;-81
2022/05/06 04:39:06;;;;;;;46.68;25.95;;;;;;;8.28;82.90;102156.45;1684037;83;21294;-79
2022/05/06 04:41:36;;;;;;;48.55;26.12;;;;;;;8.40;82.24;102154.64;1709442;82;21141;-77
2022/05/06 04:44:04;;;;;;;43.87;26.20;;;;;;;8.50;82.39;102152.09;1713179;83;21516;-83
2022/05/06 04:46:33;;;;;;;44.45;25.40;;;;;;;8.62;80.56;102156.36;1680435;84;21101;-79
2022/05/06 04:49:00;;;;;;;38.83;23.02;;;;;;;8.73;77.17;102158.53;1726899;82;21048;-79
2022/05/06 04:51:27;;;;;;;39.40;23.50;;;;;;;8.82;77.77;102151.17;1717691;82;21150;-79
2022/05/06 04:53:55;;;;;;;42.85;24.30;;;;;;;8.92;76.02;102148.19;1726272;83;21674;-78
2022/05/06 04:56:22;;;;;;;37.93;21.93;;;;;;;9.02;76.35;102155.94;1725747;83;21116;-80
2022/05/06 04:58:51;;;;;;;40.52;23.32;;;;;;;9.14;79.10;102167.11;1725973;81;21508;-79
2022/05/06 05:01:20;;;;;;;40.98;22.50;;;;;;;9.24;71.91;102166.70;1721133;83;21076;-80
2022/05/06 05:03:47;;;;;;;42.85;22.77;;;;;;;9.28;69.60;102165.20;1726246;83;21934;-79
2022/05/06 05:06:16;;;;;;;35.03;20.00;;;;;;;9.34;69.97;102169.25;1725808;81;21010;-78
2022/05/06 05:08:47;;;;;;;39.78;20.88;;;;;;;9.42;73.18;102163.72;1738112;81;20962;-79
2022/05/06 05:11:16;;;;;;;34.90;19.25;;;;;;;9.54;73.27;102173.55;1731236;81;21018;-77
2022/05/06 05:13:47;;;;;;;30.82;18.45;;;;;;;9.65;72.24;102165.72;1721649;81;21707;-80
2022/05/06 05:16:16;;;;;;;37.75;18.85;;;;;;;9.76;74.16;102173.41;1709042;83;21146;-82
2022/05/06 05:18:44;;;;;;;36.30;19.15;;;;;;;9.88;74.79;102167.25;1720267;82;21088;-79
2022/05/06 05:21:12;;;;;;;30.50;18.48;;;;;;;9.98;72.21;102167.17;1691541;83;21025;-79
2022/05/06 05:23:42;;;;;;;33.70;18.37;;;;;;;10.12;72.84;102170.42;1691418;83;21052;-79
2022/05/06 05:26:09;;;;;;;31.97;18.35;;;;;;;10.21;66.44;102168.68;1691432;83;21100;-79
2022/05/06 05:28:37;;;;;;;30.77;17.77;;;;;;;10.29;67.53;102168.31;1690954;83;21843;-77
2022/05/06 05:31:06;;;;;;;30.68;16.82;;;;;;;10.39;68.62;102176.06;1665111;84;21526;-80
2022/05/06 05:33:35;;;;;;;29.92;16.15;;;;;;;10.50;68.92;102166.41;1691082;83;21071;-77
2022/05/06 05:36:02;;;;;;;26.07;15.58;;;;;;;10.63;66.90;102167.11;1738252;82;21449;-78
2022/05/06 05:38:30;;;;;;;29.75;16.65;;;;;;;10.73;68.05;102164.44;1717278;82;21081;-78
2022/05/06 05:40:57;;;;;;;29.00;17.05;;;;;;;10.83;66.46;102170.00;1680881;85;21150;-80
2022/05/06 05:48:58;;;;;;;27.60;14.65;;;;;;;11.14;63.53;102177.53;1709871;83;21054;-79
2022/05/06 05:51:26;;;;;;;26.55;15.65;;;;;;;11.25;62.47;102173.91;1706850;83;21122;-78
2022/05/06 05:53:55;;;;;;;29.15;15.15;;;;;;;11.34;63.23;102170.78;1697497;84;21201;-78
2022/05/06 05:56:23;;;;;;;22.90;14.10;;;;;;;11.44;60.23;102169.84;1696928;84;20948;-82
2022/05/06 05:58:51;;;;;;;25.68;14.85;;;;;;;11.52;63.13;102165.50;1697278;84;21071;-78
2022/05/06 06:01:20;;;;;;;28.57;15.15;;;;;;;11.65;65.60;102166.53;1697105;84;21067;-79
2022/05/06 06:03:48;;;;;;;28.23;14.70;;;;;;;11.83;59.99;102170.33;1696813;84;21615;-81
2022/05/06 06:06:16;;;;;;;22.73;13.00;;;;;;;11.87;57.84;102161.42;1697315;84;21141;-79
2022/05/06 06:08:45;;;;;;;21.50;12.68;;;;;;;11.94;58.20;102166.67;1693357;84;21434;-82
2022/05/06 06:11:12;;;;;;;19.98;12.43;;;;;;;12.04;59.97;102161.79;1697157;84;21738;-80
2022/05/06 06:13:42;;;;;;;25.12;13.13;;;;;;;12.22;59.22;102171.64;1693498;84;21620;-79
2022/05/06 06:16:11;;;;;;;24.15;13.00;;;;;;;12.30;55.83;102170.73;1686925;84;21062;-79
2022/05/06 06:18:39;;;;;;;21.57;11.60;;;;;;;12.37;55.57;102174.32;1678797;84;21217;-78
2022/05/06 06:21:06;;;;;;;20.85;11.73;;;;;;;12.40;55.05;102176.29;1695311;84;21518;-80
2022/05/06 06:23:34;;;;;;;20.37;11.10;;;;;;;12.48;54.03;102177.61;1697156;84;21043;-78
2022/05/06 06:26:03;;;;;;;21.62;11.00;;;;;;;12.58;55.61;102182.66;1697126;84;21090;-78
2022/05/06 06:28:31;;;;;;;18.65;10.32;;;;;;;12.65;53.01;102174.86;1697179;84;21572;-80
2022/05/06 06:30:58;;;;;;;17.37;9.73;;;;;;;12.72;52.03;102168.78;1695461;84;21138;-79
2022/05/06 06:33:26;;;;;;;20.05;8.75;;;;;;;12.82;55.15;102179.06;1698844;83;21133;-78
2022/05/06 06:35:54;;;;;;;15.32;9.53;;;;;;;12.96;51.12;102176.08;1700514;84;21080;-78
2022/05/06 06:38:22;;;;;;;18.05;9.08;;;;;;;13.00;50.43;102171.88;1695300;84;21032;-79
2022/05/06 06:40:49;;;;;;;13.98;9.08;;;;;;;13.08;51.23;102178.80;1706097;81;21508;-79
2022/05/06 06:43:16;;;;;;;16.65;9.43;;;;;;;13.17;48.55;102184.40;1746399;80;21142;-80
2022/05/06 06:45:47;;;;;;;17.32;9.00;;;;;;;13.20;47.36;102186.36;1750771;80;21005;-79
2022/05/06 06:48:16;;;;;;;14.95;8.70;;;;;;;13.21;47.86;102181.98;1734974;80;21110;-81
2022/05/06 06:50:47;;;;;;;15.18;8.13;;;;;;;13.25;48.75;102184.77;1733266;81;21661;-84
2022/05/06 06:53:20;;;;;;;12.05;7.75;;;;;;;13.33;50.54;102172.53;1708388;82;21024;-80
2022/05/06 06:55:48;;;;;;;17.20;8.80;;;;;;;13.49;50.57;102174.60;1714132;83;21923;-81
2022/05/06 06:58:16;;;;;;;19.70;8.93;;;;;;;13.65;48.30;102178.87;1724125;82;21053;-79
2022/05/06 07:00:43;;;;;;;21.70;9.45;;;;;;;13.75;47.71;102176.02;1720701;83;21069;-79
2022/05/06 07:03:14;;;;;;;16.37;8.98;;;;;;;13.87;50.20;102179.63;1686004;85;21045;-78
2022/05/06 07:14:02;;;;;;;14.55;8.75;;;;;;;14.51;45.60;102175.87;1750350;80;21077;-80
2022/05/06 07:16:31;;;;;;;14.03;8.73;;;;;;;14.62;43.61;102174.31;1714367;82;21072;-78
2022/05/06 07:18:58;;;;;;;17.32;8.08;;;;;;;14.65;45.48;102171.47;1750698;82;21050;-79
2022/05/06 07:21:25;;;;;;;16.80;7.55;;;;;;;14.73;47.83;102166.58;1750460;80;21133;-79
2022/05/06 07:23:52;;;;;;;12.25;7.03;;;;;;;14.81;46.06;102172.63;1731703;82;21584;-79
2022/05/06 07:26:20;;;;;;;12.13;7.00;;;;;;;14.88;45.55;102166.01;1750604;80;21026;-78
2022/05/06 07:28:47;;;;;;;13.25;6.87;;;;;;;14.97;46.20;102165.83;1750788;82;21591;-79
2022/05/06 07:31:14;;;;;;;11.48;7.00;;;;;;;15.03;41.57;102175.06;1750909;80;20959;-81
2022/05/06 07:33:41;;;;;;;11.70;7.30;;;;;;;14.97;40.30;102170.62;1750590;80;22119;-79
2022/05/06 07:36:08;;;;;;;11.05;6.60;;;;;;;14.94;42.37;102172.63;1750931;82;21011;-79
2022/05/06 07:38:36;;;;;;;11.03;6.05;;;;;;;14.93;41.39;102164.38;1750399;82;21136;-79
2022/05/06 07:41:04;;;;;;;10.65;6.55;;;;;;;14.93;42.98;102168.31;1750859;82;21034;-78
2022/05/06 07:43:31;;;;;;;7.25;5.00;;;;;;;15.02;41.02;102166.83;1714660;83;21475;-80
2022/05/06 07:46:00;;;;;;;9.45;5.60;;;;;;;15.08;42.41;102164.63;1750378;80;21145;-79
2022/05/06 07:48:28;;;;;;;9.95;5.40;;;;;;;15.15;43.46;102159.77;1750268;81;21056;-79
2022/05/06 07:50:55;;;;;;;27.05;6.40;;;;;;;15.27;41.89;102158.92;1731147;82;21069;-79
2022/05/06 07:53:23;;;;;;;12.50;5.70;;;;;;;15.42;42.01;102149.59;1709468;83;20960;-78
2022/05/06 07:55:54;;;;;;;10.35;5.62;;;;;;;15.54;39.76;102150.49;1742487;81;21070;-83
2022/05/06 07:58:21;;;;;;;11.15;6.15;;;;;;;15.55;40.74;102154.80;1741042;82;22276;-79
2022/05/06 08:00:50;;;;;;;12.75;6.10;;;;;;;15.55;38.54;102150.86;1741039;82;21032;-78
2022/05/06 08:06:04;;;;;;;8.43;5.45;;;;;;;15.54;38.73;102147.38;1740739;82;21020;-79
2022/05/06 08:08:31;;;;;;;13.72;6.35;;;;;;;15.63;41.90;102139.33;1741151;82;21127;-79
2022/05/06 08:11:00;;;;;;;12.78;6.42;;;;;;;15.75;41.78;102143.67;1740961;82;21099;-79
2022/05/06 08:13:29;;;;;;;11.50;6.70;;;;;;;15.84;37.41;102146.61;1721338;82;21085;-79
2022/05/06 08:15:57;;;;;;;13.28;7.60;;;;;;;15.77;36.36;102134.39;1678767;84;21555;-79
2022/05/06 08:18:24;;;;;;;22.13;7.83;;;;;;;15.70;38.23;102142.36;1712904;83;21055;-79
2022/05/06 08:20:53;;;;;;;14.70;7.90;;;;;;;15.70;39.59;102144.50;1678433;84;20998;-80
2022/05/06 08:23:23;;;;;;;14.45;8.25;;;;;;;15.78;39.99;102141.33;1713007;82;21202;-78
2022/05/06 08:25:52;;;;;;;17.17;8.28;;;;;;;15.87;37.83;102145.91;1678687;84;21053;-79
2022/05/06 08:28:20;;;;;;;15.65;7.90;;;;;;;15.94;40.68;102146.30;1712920;83;21053;-79
2022/05/06 08:30:48;;;;;;;14.87;7.97;;;;;;;16.02;37.95;102147.89;1678508;85;21054;-79
2022/05/06 08:33:16;;;;;;;16.62;6.60;;;;;;;16.00;37.64;102144.53;1712956;82;21642;-78
2022/05/06 08:35:43;;;;;;;10.68;6.58;;;;;;;16.04;39.78;102136.80;1687503;83;21779;-81
2022/05/06 08:38:13;;;;;;;12.63;7.00;;;;;;;16.18;39.46;102134.92;1739963;81;21039;-79
2022/05/06 08:40:42;;;;;;;10.82;6.15;;;;;;;16.26;37.27;102143.06;1723081;81;21083;-82
2022/05/06 08:43:09;;;;;;;12.93;6.80;;;;;;;16.25;36.65;102132.19;1740648;81;21086;-80
2022/05/06 08:51:13;;;;;;;13.70;7.35;;;;;;;16.45;38.71;102129.85;1727570;81;21107;-78
2022/05/06 08:53:41;;;;;;;10.95;7.50;;;;;;;16.63;38.84;102141.56;1744008;80;21095;-78
2022/05/06 08:56:09;;;;;;;9.90;5.90;;;;;;;16.72;35.54;102136.09;1718320;82;21114;-79
2022/05/06 08:58:37;;;;;;;11.10;6.22;;;;;;;16.70;36.95;102125.67;1749347;81;20965;-78
2022/05/06 09:01:08;;;;;;;16.85;6.83;;;;;;;16.76;39.59;102134.89;1722962;82;21163;-79
2022/05/06 09:03:39;;;;;;;12.98;7.60;;;;;;;16.95;41.01;102129.05;1721002;82;21062;-79
2022/05/06 09:06:27;;;;;;;13.88;8.58;;;;;;;17.13;36.61;102131.20;1718423;82;26414;-78
2022/05/06 09:08:57;;;;;;;22.35;8.93;;;;;;;17.14;36.70;102132.88;1737240;80;21049;-79
2022/05/06 09:14:17;;;;;;;15.72;7.90;;;;;;;17.12;36.54;102134.78;1705599;82;21943;-79
2022/05/06 09:16:46;;;;;;;;;;;;;;;17.11;34.49;102126.06;1697687;82;21052;-79
2022/05/06 09:19:21;;;;;;;11.85;6.72;;;;;;;17.10;35.72;102133.60;1687920;84;20220;-79
2022/05/06 09:22:17;;;;;;;11.35;7.37;;;;;;;17.16;37.50;102128.34;1748336;80;21031;-79
2022/05/06 09:24:51;;;;;;;14.15;7.28;;;;;;;17.27;38.27;102124.34;1738487;80;21109;-81
2022/05/06 09:27:18;;;;;;;12.47;7.25;;;;;;;17.39;37.85;102127.80;1735452;80;21235;-79
2022/05/06 09:29:54;;;;;;;15.63;7.50;;;;;;;17.48;37.63;102119.66;1755308;80;21111;-81
2022/05/06 09:32:25;;;;;;;16.93;8.48;;;;;;;17.58;37.51;102119.73;1720149;82;21098;-79
2022/05/06 09:35:13;;;;;;;14.45;8.05;;;;;;;17.64;33.92;102129.77;1712281;81;21056;-79
2022/05/06 09:37:46;;;;;;;19.62;8.33;;;;;;;17.57;35.31;102129.91;1742219;81;21020;-79
2022/05/06 09:40:21;;;;;;;15.85;7.37;;;;;;;17.56;34.18;102117.70;1729976;81;21131;-79
2022/05/06 09:43:00;;;;;;;14.00;7.03;;;;;;;17.54;35.00;102123.59;1702867;83;21167;-81
2022/05/06 09:45:34;;;;;;;14.63;7.20;;;;;;;17.57;36.40;102122.00;1694061;83;21075;-78
2022/05/06 09:48:04;;;;;;;13.85;6.65;;;;;;;17.71;35.31;102119.57;1699210;84;21023;-78
2022/05/06 09:50:36;;;;;;;10.35;6.62;;;;;;;17.79;35.04;102117.97;1697121;83;21629;-78
2022/05/06 09:53:07;;;;;;;10.82;6.40;;;;;;;17.84;35.16;102120.22;1703336;83;21122;-78
2022/05/06 09:55:41;;;;;;;8.98;5.87;;;;;;;17.86;32.71;102118.30;1697376;83;21092;-82
2022/05/06 09:58:09;;;;;;;7.70;5.35;;;;;;;17.78;34.38;102120.73;1669904;84;21066;-81
2022/05/06 10:00:38;;;;;;;6.90;5.45;;;;;;;17.81;34.41;102111.27;1698490;83;21062;-80
2022/05/06 10:03:08;;;;;;;14.50;6.47;;;;;;;17.85;35.22;102111.36;1699728;83;21131;-81
2022/05/06 10:05:38;;;;;;;22.42;7.87;;;;;;;17.94;33.65;102116.38;1674744;83;22186;-79
2022/05/06 10:08:22;;;;;;;19.10;7.85;;;;;;;17.94;32.77;102114.55;1676418;83;21089;-79
2022/05/06 10:11:00;;;;;;;12.13;6.55;;;;;;;17.93;32.91;102114.69;1709313;83;21061;-79
2022/05/06 10:13:34;;;;;;;10.93;5.80;;;;;;;18.05;35.97;102114.19;1704871;83;21029;-79
2022/05/06 10:16:02;;;;;;;13.88;7.60;;;;;;;18.16;33.61;102111.47;1666752;84;21513;-79
2022/05/06 10:18:38;;;;;;;18.92;9.00;;;;;;;18.22;34.48;102113.61;1690822;83;21183;-79
2022/05/06 10:21:11;;;;;;;17.40;9.00;;;;;;;18.24;33.09;102110.34;1705475;83;21367;-82
2022/05/06 10:23:54;;;;;;;30.23;9.68;;;;;;;18.23;33.22;102104.71;1701579;83;21110;-79
2022/05/06 10:26:45;;;;;;;15.72;8.93;;;;;;;18.26;34.50;102105.78;1702768;83;21040;-81
2022/05/06 10:32:56;;;;;;;11.28;7.92;;;;;;;18.48;34.83;102102.62;1703393;83;21945;-83
2022/05/06 10:35:42;;;;;;;15.05;9.13;;;;;;;18.59;33.97;102109.61;1663062;84;21026;-79
2022/05/06 10:38:26;;;;;;;18.48;9.45;;;;;;;18.62;33.40;102100.63;1706648;84;21597;-79
2022/05/06 10:40:58;;;;;;;17.67;8.93;;;;;;;18.57;33.84;102106.30;1701211;83;21013;-79
2022/05/06 10:43:46;;;;;;;13.65;8.88;;;;;;;18.56;32.34;102100.66;1704214;84;22238;-79
2022/05/06 10:46:30;;;;;;;16.42;7.78;;;;;;;18.44;32.65;102092.00;1697537;83;21828;-80
2022/05/06 10:49:37;;;;;;;15.15;7.47;;;;;;;18.39;34.87;102092.86;1727701;81;21648;-81
2022/05/06 10:52:20;;;;;;;12.00;6.95;;;;;;;18.51;35.66;102087.87;1725456;82;21320;-80
2022/05/06 10:55:00;;;;;;;12.28;7.92;;;;;;;18.75;37.03;102086.22;1731404;81;21072;-79
2022/05/06 10:57:31;;;;;;;19.35;9.45;;;;;;;18.95;36.36;102077.58;1735358;82;21115;-79
2022/05/06 11:00:05;;;;;;;18.23;8.80;;;;;;;19.08;33.84;102085.58;1722909;82;21851;-82
2022/05/06 11:02:35;;;;;;;11.63;7.35;;;;;;;19.07;34.61;102079.12;1725309;82;21064;-78
2022/05/06 11:05:07;;;;;;;11.10;7.05;;;;;;;19.07;33.95;102069.89;1716235;82;21009;-80
2022/05/06 11:07:36;;;;;;;13.05;8.18;;;;;;;19.07;35.32;102063.28;1717279;82;21052;-79
2022/05/06 11:10:26;;;;;;;12.98;8.30;;;;;;;19.03;31.75;102073.75;1729053;82;21123;-79
2022/05/06 11:12:57;;;;;;;11.60;7.08;;;;;;;18.91;32.82;102064.61;1732290;82;21770;-78
2022/05/06 11:15:33;;;;;;;7.95;5.58;;;;;;;18.90;33.96;102070.03;1716255;82;21057;-79
2022/05/06 11:18:04;;;;;;;15.28;7.65;;;;;;;18.98;33.49;102061.45;1729277;82;21121;-79
2022/05/06 11:20:38;;;;;;;13.62;7.50;;;;;;;19.09;33.65;102063.99;1730287;82;20988;-78
2022/05/06 11:23:11;;;;;;;7.42;5.33;;;;;;;19.10;34.73;102062.17;1729751;81;21121;-80
2022/05/06 11:25:47;;;;;;;8.68;5.10;;;;;;;19.16;35.86;102059.83;1740837;82;21051;-79
2022/05/06 11:28:20;;;;;;;5.83;4.67;;;;;;;19.29;35.34;102057.41;1724391;82;21044;-79
2022/05/06 11:30:50;;;;;;;14.38;7.08;;;;;;;19.44;35.08;102056.02;1732511;82;21068;-80
2022/05/06 11:33:24;;;;;;;11.30;6.80;;;;;;;19.48;32.51;102058.74;1715721;82;21113;-80
2022/05/06 11:36:01;;;;;;;12.15;6.70;;;;;;;19.32;31.96;102054.00;1687829;82;21028;-78
2022/05/06 11:38:37;;;;;;;11.97;6.75;;;;;;;19.17;31.21;102055.38;1711498;83;21274;-78
2022/05/06 11:41:13;;;;;;;10.25;6.30;;;;;;;19.10;31.62;102041.05;1741070;82;21065;-79
2022/05/06 11:43:43;;;;;;;12.80;6.80;;;;;;;19.21;34.03;102043.08;1733065;82;21550;-80
2022/05/06 11:49:08;;;;;;;19.73;6.28;;;;;;;19.33;31.66;102037.69;1737929;81;21019;-79
2022/05/06 11:51:41;;;;;;;11.63;6.90;;;;;;;19.43;33.40;102028.43;1741591;82;21078;-80
2022/05/06 11:54:12;;;;;;;11.45;6.87;;;;;;;19.56;32.62;102027.65;1738220;81;21088;-80
2022/05/06 11:56:40;;;;;;;14.28;7.65;;;;;;;19.68;31.11;102034.94;1738371;81;21042;-78
2022/05/06 11:59:10;;;;;;;13.15;7.35;;;;;;;19.65;30.14;102026.81;1721230;82;21599;-79
2022/05/06 12:01:39;;;;;;;13.35;7.58;;;;;;;19.61;30.46;102017.98;1741429;81;21620;-80
2022/05/06 12:04:10;;;;;;;13.95;7.75;;;;;;;19.61;30.30;102017.98;1741441;81;21262;-80
2022/05/06 12:06:42;;;;;;;16.62;7.60;;;;;;;19.58;29.69;102010.36;1731642;82;21605;-79
2022/05/06 12:09:16;;;;;;;13.90;7.20;;;;;;;19.51;30.86;102020.14;1715988;82;21083;-79